Time;durP1;ratioP1;P1;durP2;ratioP2;P2;SDS_P1;SDS_P2;PMS_P1;PMS_P2;Temp;Humidity;BMP_temperature;BMP_pressure;BME280_temperature;BME280_humidity;BME280_pressure;Samples;Min_cycle;Max_cycle;Signal;HPM_P1;HPM_P2
2023/03/01 00:01:06;;;;;;;39.05;14.13;;;;;;;;;;6186581;23;20002;-77
2023/03/01 00:03:33;;;;;;;27.77;12.85;;;;;;;;;;6186210;23;20012;-77
2023/03/01 00:05:59;;;;;;;29.98;13.20;;;;;;;;;;6185841;23;20000;-77
2023/03/01 00:08:26;;;;;;;22.30;11.70;;;;;;;;;;6185753;23;19998;-77
2023/03/01 00:11:05;;;;;;;28.63;12.02;;;;;;;;;;6185919;23;20000;-77
2023/03/01 00:13:31;;;;;;;25.15;12.45;;;;;;;;;;6187551;23;20005;-77
2023/03/01 00:15:57;;;;;;;26.30;12.07;;;;;;;;;;6188105;23;20076;-77
2023/03/01 00:18:23;;;;;;;23.73;13.07;;;;;;;;;;6188145;23;20008;-77
2023/03/01 00:20:51;;;;;;;26.40;13.40;;;;;;;;;;6188293;23;20080;-77
2023/03/01 00:23:16;;;;;;;28.65;14.50;;;;;;;;;;6187956;23;20004;-77
2023/03/01 00:25:43;;;;;;;34.17;14.18;;;;;;;;;;6187604;23;20001;-77
2023/03/01 00:28:09;;;;;;;28.70;14.13;;;;;;;;;;6187809;23;19998;-77
2023/03/01 00:30:35;;;;;;;31.38;14.55;;;;;;;;;;6187705;23;19997;-77
2023/03/01 00:33:01;;;;;;;30.27;13.73;;;;;;;;;;6187627;23;20643;-77
2023/03/01 00:35:27;;;;;;;25.58;12.60;;;;;;;;;;6187452;23;20012;-77
2023/03/01 00:37:53;;;;;;;26.02;11.90;;;;;;;;;;6187724;23;20385;-77
2023/03/01 00:40:20;;;;;;;24.38;10.10;;;;;;;;;;6188093;23;19997;-77
2023/03/01 00:42:46;;;;;;;20.52;10.18;;;;;;;;;;6187547;23;20013;-77
2023/03/01 00:45:13;;;;;;;19.15;9.30;;;;;;;;;;6187966;23;20012;-77
2023/03/01 00:47:38;;;;;;;27.20;8.45;;;;;;;;;;6188314;23;20399;-77
2023/03/01 00:50:05;;;;;;;17.25;8.07;;;;;;;;;;6187653;23;20004;-77
2023/03/01 00:52:31;;;;;;;17.42;8.70;;;;;;;;;;6188154;23;20004;-77
2023/03/01 00:54:57;;;;;;;14.80;8.50;;;;;;;;;;6187618;23;20088;-77
2023/03/01 00:57:23;;;;;;;23.58;8.45;;;;;;;;;;6187981;23;19997;-77
2023/03/01 00:59:49;;;;;;;21.85;8.55;;;;;;;;;;6187716;23;20084;-77
2023/03/01 01:02:15;;;;;;;16.65;7.40;;;;;;;;;;6187785;23;20001;-77
2023/03/01 01:04:41;;;;;;;16.05;6.13;;;;;;;;;;6187634;23;20001;-77
2023/03/01 01:07:07;;;;;;;19.60;6.43;;;;;;;;;;6187437;23;20408;-77
2023/03/01 01:09:34;;;;;;;26.45;7.25;;;;;;;;;;6187501;23;20008;-77
2023/03/01 01:12:00;;;;;;;34.05;8.30;;;;;;;;;;6187807;23;20001;-77
2023/03/01 01:14:26;;;;;;;33.50;8.50;;;;;;;;;;6187157;23;20093;-77
2023/03/01 01:16:52;;;;;;;22.23;8.15;;;;;;;;;;6187217;23;20281;-77
2023/03/01 01:19:18;;;;;;;15.75;8.30;;;;;;;;;;6187118;23;20008;-77
2023/03/01 01:21:44;;;;;;;16.70;8.55;;;;;;;;;;6187064;23;20001;-77
2023/03/01 01:24:21;;;;;;;11.35;6.88;;;;;;;;;;6186284;23;20067;-77
2023/03/01 01:26:48;;;;;;;15.95;7.95;;;;;;;;;;6187370;23;20412;-77
2023/03/01 01:29:14;;;;;;;11.85;7.60;;;;;;;;;;6187104;23;20430;-77
2023/03/01 01:31:41;;;;;;;15.35;6.57;;;;;;;;;;6187063;23;19993;-77
2023/03/01 01:34:08;;;;;;;11.73;5.15;;;;;;;;;;6186555;23;20005;-77
2023/03/01 01:36:34;;;;;;;9.38;5.18;;;;;;;;;;6186767;23;20001;-77
2023/03/01 01:39:01;;;;;;;8.52;4.55;;;;;;;;;;6186790;23;19998;-77
2023/03/01 01:41:28;;;;;;;10.50;5.50;;;;;;;;;;6186789;23;20299;-77
2023/03/01 01:44:18;;;;;;;16.58;5.80;;;;;;;;;;6186917;23;20005;-77
2023/03/01 01:46:49;;;;;;;15.38;5.72;;;;;;;;;;6187015;23;20008;-77
2023/03/01 01:49:19;;;;;;;26.80;7.53;;;;;;;;;;6186734;23;19993;-77
2023/03/01 01:51:48;;;;;;;20.02;7.30;;;;;;;;;;6186781;23;20316;-77
2023/03/01 01:54:22;;;;;;;32.22;6.70;;;;;;;;;;6186758;23;20019;-77
2023/03/01 01:56:50;;;;;;;34.50;7.30;;;;;;;;;;6186791;23;20003;-77
2023/03/01 01:59:16;;;;;;;33.22;7.05;;;;;;;;;;6186408;23;19997;-77
2023/03/01 02:01:43;;;;;;;21.23;6.72;;;;;;;;;;6186632;23;20423;-77
2023/03/01 02:04:09;;;;;;;35.97;6.88;;;;;;;;;;6186594;23;20055;-77
2023/03/01 02:09:46;;;;;;;29.05;7.68;;;;;;;;;;6186497;23;20056;-77
2023/03/01 02:12:14;;;;;;;28.02;9.50;;;;;;;;;;6186709;23;20012;-77
2023/03/01 02:14:40;;;;;;;32.22;9.85;;;;;;;;;;6186206;23;20005;-77
2023/03/01 02:17:06;;;;;;;50.42;13.63;;;;;;;;;;6186295;23;19997;-77
2023/03/01 02:19:39;;;;;;;25.75;10.40;;;;;;;;;;6186245;23;20025;-77
2023/03/01 02:22:12;;;;;;;33.00;9.95;;;;;;;;;;6186382;23;20001;-77
2023/03/01 02:24:44;;;;;;;41.45;10.55;;;;;;;;;;6186358;23;20505;-77
2023/03/01 02:27:10;;;;;;;28.15;8.32;;;;;;;;;;6186039;23;20001;-77
2023/03/01 02:29:36;;;;;;;32.10;9.38;;;;;;;;;;6186312;23;20028;-77
2023/03/01 02:32:03;;;;;;;33.05;7.43;;;;;;;;;;6186176;23;20403;-77
2023/03/01 02:34:31;;;;;;;26.48;7.70;;;;;;;;;;6185792;23;20442;-77
2023/03/01 02:37:07;;;;;;;21.15;6.97;;;;;;;;;;6186053;23;20454;-77
2023/03/01 02:39:41;;;;;;;12.52;6.32;;;;;;;;;;6186165;23;20008;-77
2023/03/01 02:42:07;;;;;;;15.30;6.95;;;;;;;;;;6186431;23;20023;-77
2023/03/01 02:44:33;;;;;;;12.95;6.22;;;;;;;;;;6185824;23;20001;-77
2023/03/01 02:47:01;;;;;;;14.45;6.05;;;;;;;;;;6186781;23;20009;-77
2023/03/01 02:49:28;;;;;;;15.65;5.95;;;;;;;;;;6186105;23;19997;-77
2023/03/01 02:55:01;;;;;;;15.85;6.38;;;;;;;;;;6185924;23;20071;-77
2023/03/01 02:57:28;;;;;;;11.48;5.88;;;;;;;;;;6159525;23;20012;-77
2023/03/01 02:59:55;;;;;;;10.70;5.88;;;;;;;;;;6185928;23;20001;-77
2023/03/01 03:02:35;;;;;;;24.05;6.90;;;;;;;;;;6185970;23;20004;-77
2023/03/01 03:05:02;;;;;;;16.60;7.22;;;;;;;;;;6159588;23;20082;-77
2023/03/01 03:07:28;;;;;;;12.57;6.25;;;;;;;;;;6185834;23;20588;-77
2023/03/01 03:09:54;;;;;;;14.68;7.13;;;;;;;;;;6185870;23;20052;-77
2023/03/01 03:12:20;;;;;;;14.23;6.32;;;;;;;;;;6185796;23;19993;-77
2023/03/01 03:14:47;;;;;;;14.13;6.82;;;;;;;;;;6185752;23;20420;-77
2023/03/01 03:17:13;;;;;;;18.33;7.53;;;;;;;;;;6186260;23;20300;-77
2023/03/01 03:19:38;;;;;;;13.73;6.55;;;;;;;;;;6185737;23;20001;-77
2023/03/01 03:22:04;;;;;;;15.35;7.10;;;;;;;;;;6185772;23;20068;-77
2023/03/01 03:24:37;;;;;;;19.70;7.30;;;;;;;;;;6185740;23;20005;-77
2023/03/01 03:27:03;;;;;;;17.42;6.85;;;;;;;;;;6186103;23;20000;-77
2023/03/01 03:29:29;;;;;;;20.30;8.50;;;;;;;;;;6185726;23;20016;-77
2023/03/01 03:31:55;;;;;;;21.13;8.10;;;;;;;;;;6185707;23;20008;-77
2023/03/01 03:34:29;;;;;;;17.70;7.03;;;;;;;;;;6185088;23;20016;-77
2023/03/01 03:38:01;;;;;;;29.27;8.77;;;;;;;;;;6185604;23;20417;-77
2023/03/01 03:39:54;;;;;;;36.85;8.60;;;;;;;;;;6185383;23;20006;-77
2023/03/01 03:42:21;;;;;;;17.88;6.85;;;;;;;;;;6185537;23;20044;-77
2023/03/01 03:44:47;;;;;;;40.50;9.13;;;;;;;;;;6185676;23;20005;-77
2023/03/01 03:47:13;;;;;;;24.20;7.45;;;;;;;;;;6160007;23;19998;-77
2023/03/01 03:49:39;;;;;;;24.85;7.43;;;;;;;;;;6187717;23;20076;-77
2023/03/01 03:52:13;;;;;;;24.38;8.05;;;;;;;;;;6187761;23;20372;-77
2023/03/01 03:54:39;;;;;;;30.20;9.15;;;;;;;;;;6188009;23;20323;-77
2023/03/01 03:57:05;;;;;;;23.10;8.88;;;;;;;;;;6187817;23;19997;-77
2023/03/01 03:59:31;;;;;;;20.77;8.88;;;;;;;;;;6187598;23;20316;-77
2023/03/01 04:01:57;;;;;;;28.25;9.77;;;;;;;;;;6188017;23;20005;-77
2023/03/01 04:04:23;;;;;;;18.13;6.05;;;;;;;;;;6187508;23;20008;-77
2023/03/01 04:06:49;;;;;;;65.72;12.63;;;;;;;;;;6187435;23;20028;-77
2023/03/01 04:09:15;;;;;;;36.55;9.27;;;;;;;;;;6187387;23;20005;-77
2023/03/01 04:11:41;;;;;;;44.75;10.45;;;;;;;;;;6187516;23;20009;-77
2023/03/01 04:14:07;;;;;;;41.75;11.32;;;;;;;;;;6187438;23;20071;-77
2023/03/01 04:16:39;;;;;;;57.75;12.55;;;;;;;;;;6187380;23;20001;-77
2023/03/01 04:19:12;;;;;;;50.58;11.68;;;;;;;;;;6187519;23;20008;-77
2023/03/01 04:21:38;;;;;;;66.95;13.70;;;;;;;;;;6187448;23;20005;-77
2023/03/01 04:24:04;;;;;;;32.13;9.80;;;;;;;;;;6187391;23;20040;-77
2023/03/01 04:26:30;;;;;;;42.83;10.38;;;;;;;;;;6187321;23;20000;-77
2023/03/01 04:28:56;;;;;;;31.10;9.52;;;;;;;;;;6187343;23;20005;-77
2023/03/01 04:31:22;;;;;;;28.30;7.53;;;;;;;;;;6187485;23;19997;-77
2023/03/01 04:33:57;;;;;;;21.30;7.28;;;;;;;;;;6187081;23;20032;-77
2023/03/01 04:36:25;;;;;;;22.63;7.55;;;;;;;;;;6187277;23;20001;-77
2023/03/01 04:38:51;;;;;;;16.83;7.22;;;;;;;;;;6187199;23;20001;-77
2023/03/01 04:41:18;;;;;;;37.70;8.43;;;;;;;;;;6187090;23;20293;-77
2023/03/01 04:43:44;;;;;;;27.38;5.60;;;;;;;;;;6160691;23;20005;-77
2023/03/01 04:46:14;;;;;;;26.30;6.60;;;;;;;;;;6187317;23;19997;-77
2023/03/01 04:48:41;;;;;;;173.60;16.67;;;;;;;;;;6187271;23;20001;-77
2023/03/01 04:51:08;;;;;;;11.65;6.05;;;;;;;;;;6187288;23;20004;-77
2023/03/01 04:53:36;;;;;;;14.15;6.45;;;;;;;;;;6187572;23;20132;-77
2023/03/01 04:56:02;;;;;;;26.95;6.47;;;;;;;;;;6187141;23;20419;-77
2023/03/01 04:58:28;;;;;;;20.90;7.20;;;;;;;;;;6187097;23;20052;-77
2023/03/01 05:00:54;;;;;;;13.25;6.47;;;;;;;;;;6187101;23;20055;-77
2023/03/01 05:03:35;;;;;;;17.85;5.78;;;;;;;;;;6187446;23;19997;-77
2023/03/01 05:06:01;;;;;;;15.32;7.35;;;;;;;;;;6187221;23;20004;-77
2023/03/01 05:08:27;;;;;;;25.27;8.30;;;;;;;;;;6187020;23;20031;-77
2023/03/01 05:10:54;;;;;;;23.80;8.40;;;;;;;;;;6186907;23;20269;-77
2023/03/01 05:13:21;;;;;;;19.77;6.85;;;;;;;;;;6187059;23;20008;-77
2023/03/01 05:16:00;;;;;;;19.02;5.65;;;;;;;;;;6186875;23;20044;-77
2023/03/01 05:18:28;;;;;;;13.32;5.65;;;;;;;;;;6186879;23;20001;-77
2023/03/01 05:20:57;;;;;;;16.02;6.22;;;;;;;;;;6187157;23;20055;-77
2023/03/01 05:23:24;;;;;;;17.17;6.00;;;;;;;;;;6187176;23;19997;-77
2023/03/01 05:25:52;;;;;;;18.90;6.10;;;;;;;;;;6186787;23;20404;-77
2023/03/01 05:28:19;;;;;;;11.85;5.55;;;;;;;;;;6187081;23;20353;-77
2023/03/01 05:30:45;;;;;;;28.40;5.70;;;;;;;;;;6186768;23;20438;-77
2023/03/01 05:33:13;;;;;;;17.23;6.22;;;;;;;;;;6186754;23;19993;-77
2023/03/01 05:35:40;;;;;;;17.73;6.03;;;;;;;;;;6186895;23;20005;-77
2023/03/01 05:38:07;;;;;;;19.70;6.35;;;;;;;;;;6186714;23;20416;-77
2023/03/01 05:40:33;;;;;;;15.50;5.78;;;;;;;;;;6186343;23;20008;-77
2023/03/01 05:42:59;;;;;;;13.35;5.95;;;;;;;;;;6186588;23;20076;-77
2023/03/01 05:45:27;;;;;;;18.45;7.40;;;;;;;;;;6186686;23;20029;-77
2023/03/01 05:47:54;;;;;;;13.32;6.00;;;;;;;;;;6186706;23;20476;-77
2023/03/01 05:50:20;;;;;;;13.02;5.65;;;;;;;;;;6186753;23;20375;-77
2023/03/01 05:52:50;;;;;;;13.23;4.65;;;;;;;;;;6186744;23;20475;-77
2023/03/01 05:55:18;;;;;;;16.02;5.20;;;;;;;;;;6186468;23;20010;-77
2023/03/01 05:57:44;;;;;;;16.00;5.43;;;;;;;;;;6186426;23;20106;-77
2023/03/01 06:00:10;;;;;;;5.60;3.83;;;;;;;;;;6186544;23;20355;-77
2023/03/01 06:02:37;;;;;;;8.57;3.88;;;;;;;;;;6186093;23;20400;-77
2023/03/01 06:05:03;;;;;;;8.50;4.65;;;;;;;;;;6186733;23;20028;-77
2023/03/01 06:07:29;;;;;;;9.88;6.03;;;;;;;;;;6186320;23;20002;-77
2023/03/01 06:09:55;;;;;;;15.18;5.75;;;;;;;;;;6186056;23;20418;-77
2023/03/01 06:12:21;;;;;;;14.63;5.88;;;;;;;;;;6186594;23;20056;-77
2023/03/01 06:14:48;;;;;;;13.13;6.22;;;;;;;;;;6186193;23;20315;-77
2023/03/01 06:17:13;;;;;;;11.25;5.70;;;;;;;;;;6186710;23;20008;-77
2023/03/01 06:19:39;;;;;;;14.52;5.93;;;;;;;;;;6186289;23;20005;-78
2023/03/01 06:22:05;;;;;;;11.45;6.05;;;;;;;;;;6188495;23;20024;-77
2023/03/01 06:24:31;;;;;;;8.55;5.22;;;;;;;;;;6186536;23;20000;-79
2023/03/01 06:27:13;;;;;;;8.70;5.30;;;;;;;;;;6186172;23;20004;-77
2023/03/01 06:29:41;;;;;;;16.83;7.18;;;;;;;;;;6186104;23;20079;-77
2023/03/01 06:32:07;;;;;;;10.57;5.70;;;;;;;;;;6186261;23;20416;-77
2023/03/01 06:34:33;;;;;;;11.93;5.53;;;;;;;;;;6185961;23;20316;-77
2023/03/01 06:36:59;;;;;;;12.98;5.68;;;;;;;;;;6186075;23;20020;-77
2023/03/01 06:39:27;;;;;;;9.48;5.97;;;;;;;;;;6185834;23;20423;-77
2023/03/01 06:41:54;;;;;;;10.07;5.45;;;;;;;;;;6185582;23;20082;-77
2023/03/01 06:44:19;;;;;;;12.85;6.25;;;;;;;;;;6186053;23;20001;-77
2023/03/01 06:46:46;;;;;;;12.30;6.07;;;;;;;;;;6185810;23;20008;-77
2023/03/01 06:49:12;;;;;;;18.73;6.68;;;;;;;;;;6186467;23;20056;-77
2023/03/01 06:51:38;;;;;;;24.42;8.05;;;;;;;;;;6185818;23;20024;-77
2023/03/01 06:54:04;;;;;;;36.58;14.88;;;;;;;;;;6185914;23;20009;-77
2023/03/01 06:56:31;;;;;;;18.65;8.25;;;;;;;;;;6185979;23;19997;-77
2023/03/01 06:58:57;;;;;;;16.98;7.40;;;;;;;;;;6186163;23;20454;-77
2023/03/01 07:01:23;;;;;;;21.05;8.00;;;;;;;;;;6186000;23;20019;-77
2023/03/01 07:03:49;;;;;;;27.05;10.05;;;;;;;;;;6186156;23;19998;-77
2023/03/01 07:06:15;;;;;;;27.42;9.40;;;;;;;;;;6185902;23;20004;-77
2023/03/01 07:08:41;;;;;;;37.78;13.63;;;;;;;;;;6186043;23;20029;-77
2023/03/01 07:11:31;;;;;;;30.85;10.45;;;;;;;;;;6186163;23;20293;-77
2023/03/01 07:13:58;;;;;;;24.93;7.50;;;;;;;;;;6186876;23;20064;-77
2023/03/01 07:16:24;;;;;;;17.60;6.95;;;;;;;;;;6186209;23;20001;-77
2023/03/01 07:18:50;;;;;;;14.32;6.78;;;;;;;;;;6185799;23;19993;-77
2023/03/01 07:21:16;;;;;;;21.50;7.90;;;;;;;;;;6185968;23;20047;-77
2023/03/01 07:23:42;;;;;;;12.75;6.35;;;;;;;;;;6186547;23;20035;-77
2023/03/01 07:26:08;;;;;;;15.90;6.95;;;;;;;;;;6186033;23;20024;-77
2023/03/01 07:28:38;;;;;;;13.45;6.72;;;;;;;;;;6185804;23;20404;-77
2023/03/01 07:31:04;;;;;;;15.75;6.82;;;;;;;;;;6186292;23;20001;-77
2023/03/01 07:33:30;;;;;;;17.58;6.03;;;;;;;;;;6185812;23;20025;-77
2023/03/01 07:35:56;;;;;;;12.82;6.05;;;;;;;;;;6185581;23;20420;-77
2023/03/01 07:38:22;;;;;;;21.83;7.15;;;;;;;;;;6186017;23;20474;-76
2023/03/01 07:40:48;;;;;;;29.35;9.55;;;;;;;;;;6186051;23;19997;-77
2023/03/01 07:43:14;;;;;;;18.65;7.90;;;;;;;;;;6186516;23;20055;-77
2023/03/01 07:45:40;;;;;;;20.20;7.05;;;;;;;;;;6185857;23;20621;-77
2023/03/01 07:48:06;;;;;;;15.38;7.05;;;;;;;;;;6186813;23;20001;-77
2023/03/01 07:50:32;;;;;;;12.55;6.20;;;;;;;;;;6185558;23;20080;-77
2023/03/01 07:52:58;;;;;;;15.23;6.88;;;;;;;;;;6185878;23;19997;-77
2023/03/01 07:55:24;;;;;;;12.40;6.90;;;;;;;;;;6185296;23;20368;-77
2023/03/01 07:57:50;;;;;;;14.82;7.47;;;;;;;;;;6185612;23;20427;-77
2023/03/01 08:00:17;;;;;;;11.15;6.63;;;;;;;;;;6185734;23;20001;-77
2023/03/01 08:02:43;;;;;;;9.27;6.57;;;;;;;;;;6185833;23;20001;-77
2023/03/01 08:05:09;;;;;;;11.93;5.78;;;;;;;;;;6185641;23;20290;-77
2023/03/01 08:07:35;;;;;;;8.65;5.03;;;;;;;;;;6159159;23;20001;-77
2023/03/01 08:10:02;;;;;;;9.60;5.15;;;;;;;;;;6185402;23;20051;-77
2023/03/01 08:12:28;;;;;;;16.23;5.05;;;;;;;;;;6185822;23;19997;-77
2023/03/01 08:14:54;;;;;;;8.73;5.32;;;;;;;;;;6185342;23;20576;-77
2023/03/01 08:17:20;;;;;;;6.72;4.03;;;;;;;;;;6185324;23;20001;-77
2023/03/01 08:19:46;;;;;;;7.60;4.32;;;;;;;;;;6185497;23;19997;-77
2023/03/01 08:22:12;;;;;;;9.70;4.72;;;;;;;;;;6185701;23;20001;-77
2023/03/01 08:24:38;;;;;;;6.72;4.70;;;;;;;;;;6185389;23;20080;-77
2023/03/01 08:27:04;;;;;;;9.63;4.93;;;;;;;;;;6185228;23;19997;-77
2023/03/01 08:29:34;;;;;;;9.88;5.25;;;;;;;;;;6185427;23;20001;-77
2023/03/01 08:32:00;;;;;;;10.27;5.97;;;;;;;;;;6185292;23;20000;-77
2023/03/01 08:34:26;;;;;;;6.70;5.60;;;;;;;;;;6186565;23;20246;-77
2023/03/01 08:37:01;;;;;;;7.15;5.70;;;;;;;;;;6186742;23;20249;-77
2023/03/01 08:39:27;;;;;;;7.60;5.85;;;;;;;;;;6186990;23;20001;-77
2023/03/01 08:41:53;;;;;;;11.52;6.35;;;;;;;;;;6186333;23;20013;-77
2023/03/01 08:44:20;;;;;;;7.32;5.60;;;;;;;;;;6187082;23;20032;-77
2023/03/01 08:46:47;;;;;;;6.13;5.00;;;;;;;;;;6187221;23;20312;-77
2023/03/01 08:49:14;;;;;;;10.77;5.88;;;;;;;;;;6186582;23;20004;-77
2023/03/01 08:51:40;;;;;;;6.95;5.47;;;;;;;;;;6186782;23;19997;-77
2023/03/01 08:54:08;;;;;;;9.63;6.68;;;;;;;;;;6186822;23;20013;-77
2023/03/01 08:56:34;;;;;;;9.70;6.88;;;;;;;;;;6186761;23;20360;-77
2023/03/01 08:59:00;;;;;;;9.35;7.13;;;;;;;;;;6187049;23;20025;-77
2023/03/01 09:01:26;;;;;;;10.68;7.60;;;;;;;;;;6186877;23;20024;-77
2023/03/01 09:03:52;;;;;;;10.88;7.93;;;;;;;;;;6186798;23;20008;-77
2023/03/01 09:06:18;;;;;;;12.50;8.80;;;;;;;;;;6187325;23;20001;-77
2023/03/01 09:08:46;;;;;;;13.05;9.23;;;;;;;;;;6187518;23;20001;-77
2023/03/01 09:11:16;;;;;;;13.23;9.13;;;;;;;;;;6186724;23;20024;-77
2023/03/01 09:13:42;;;;;;;10.98;8.02;;;;;;;;;;6187307;23;20209;-77
2023/03/01 09:16:08;;;;;;;12.32;8.55;;;;;;;;;;6186030;23;20490;-77
2023/03/01 09:18:35;;;;;;;11.52;8.18;;;;;;;;;;6185969;23;20029;-77
2023/03/01 09:21:09;;;;;;;15.20;9.73;;;;;;;;;;6186265;23;20084;-77
2023/03/01 09:23:39;;;;;;;13.90;10.20;;;;;;;;;;6186626;23;19997;-77
2023/03/01 09:26:06;;;;;;;13.75;9.93;;;;;;;;;;6186610;23;20005;-77
2023/03/01 09:28:32;;;;;;;12.60;8.95;;;;;;;;;;6187290;23;20404;-77
2023/03/01 09:30:59;;;;;;;15.68;9.50;;;;;;;;;;6187215;23;20004;-77
2023/03/01 09:33:25;;;;;;;15.13;10.57;;;;;;;;;;6186435;23;20021;-77
2023/03/01 09:35:56;;;;;;;17.20;11.68;;;;;;;;;;6186230;23;20009;-77
2023/03/01 09:38:25;;;;;;;15.50;11.13;;;;;;;;;;6186585;23;20167;-77
2023/03/01 09:40:51;;;;;;;15.55;10.82;;;;;;;;;;6187191;23;19997;-77
2023/03/01 09:43:36;;;;;;;14.65;10.88;;;;;;;;;;6187134;23;20005;-77
2023/03/01 09:46:05;;;;;;;17.98;10.73;;;;;;;;;;6186380;23;20009;-77
2023/03/01 09:48:37;;;;;;;14.70;10.95;;;;;;;;;;6187155;23;20056;-77
2023/03/01 09:51:08;;;;;;;19.48;11.18;;;;;;;;;;6187863;23;20376;-77
2023/03/01 09:53:35;;;;;;;14.60;11.05;;;;;;;;;;6190089;23;20315;-77
2023/03/01 09:56:15;;;;;;;16.42;10.95;;;;;;;;;;6187216;23;20012;-77
2023/03/01 09:58:41;;;;;;;15.95;11.27;;;;;;;;;;6186670;23;20430;-77
2023/03/01 10:01:22;;;;;;;16.63;10.32;;;;;;;;;;6187184;23;20087;-77
2023/03/01 10:04:02;;;;;;;18.52;12.13;;;;;;;;;;6186645;23;19997;-77
2023/03/01 10:06:29;;;;;;;15.80;10.82;;;;;;;;;;6186301;23;20001;-77
2023/03/01 10:08:58;;;;;;;15.43;10.85;;;;;;;;;;6186400;23;20025;-77
2023/03/01 10:11:30;;;;;;;14.77;11.48;;;;;;;;;;6186995;23;20032;-77
2023/03/01 10:14:13;;;;;;;16.05;11.13;;;;;;;;;;6187843;23;20001;-78
2023/03/01 10:16:42;;;;;;;13.63;10.15;;;;;;;;;;6188652;23;20024;-78
2023/03/01 10:19:11;;;;;;;15.73;11.05;;;;;;;;;;6190737;23;20416;-78
2023/03/01 10:21:41;;;;;;;15.63;10.83;;;;;;;;;;6188833;23;20008;-78
2023/03/01 10:24:12;;;;;;;15.93;11.32;;;;;;;;;;6188694;23;20310;-79
2023/03/01 10:26:48;;;;;;;16.02;10.52;;;;;;;;;;6193548;23;20008;-78
2023/03/01 10:29:14;;;;;;;15.38;11.20;;;;;;;;;;6193469;23;19993;-79
2023/03/01 10:31:43;;;;;;;15.52;11.40;;;;;;;;;;6192830;23;20001;-78
2023/03/01 10:34:20;;;;;;;15.65;11.05;;;;;;;;;;6193638;23;19997;-78
2023/03/01 10:36:50;;;;;;;17.40;11.90;;;;;;;;;;6191755;23;20416;-79
2023/03/01 10:39:21;;;;;;;20.10;10.80;;;;;;;;;;6191300;23;20047;-79
2023/03/01 10:41:56;;;;;;;18.58;12.68;;;;;;;;;;6192681;23;20017;-79
2023/03/01 10:44:35;;;;;;;16.75;12.35;;;;;;;;;;6191623;23;20136;-79
2023/03/01 10:47:01;;;;;;;19.90;12.77;;;;;;;;;;6193064;23;20008;-79
2023/03/01 10:49:28;;;;;;;17.63;12.80;;;;;;;;;;6191875;23;20001;-79
2023/03/01 10:51:55;;;;;;;20.33;12.95;;;;;;;;;;6191703;23;20020;-79
2023/03/01 10:54:27;;;;;;;20.25;13.10;;;;;;;;;;6193125;23;20011;-79
2023/03/01 10:57:00;;;;;;;16.67;12.77;;;;;;;;;;6192532;23;20001;-79
2023/03/01 10:59:31;;;;;;;17.00;10.32;;;;;;;;;;6192023;23;20001;-79
2023/03/01 11:02:15;;;;;;;17.48;11.73;;;;;;;;;;6190665;23;20072;-78
2023/03/01 11:04:56;;;;;;;18.08;12.65;;;;;;;;;;6188677;23;20008;-78
2023/03/01 11:07:22;;;;;;;17.88;13.02;;;;;;;;;;6188651;23;20024;-78
2023/03/01 11:09:48;;;;;;;19.48;11.98;;;;;;;;;;6187970;23;20520;-78
2023/03/01 11:12:15;;;;;;;17.98;11.98;;;;;;;;;;6186780;23;20051;-78
2023/03/01 11:14:47;;;;;;;19.27;13.15;;;;;;;;;;6186770;23;20005;-78
2023/03/01 11:17:22;;;;;;;19.88;11.00;;;;;;;;;;6188372;23;20450;-78
2023/03/01 11:20:10;;;;;;;16.52;12.25;;;;;;;;;;6189338;23;20012;-79
2023/03/01 11:22:36;;;;;;;18.55;13.27;;;;;;;;;;6190543;23;20008;-78
2023/03/01 11:25:03;;;;;;;16.25;12.45;;;;;;;;;;6190640;23;20007;-79
2023/03/01 11:27:32;;;;;;;17.42;12.70;;;;;;;;;;6189820;23;20003;-79
2023/03/01 11:30:04;;;;;;;19.55;11.93;;;;;;;;;;6189910;23;20286;-79
2023/03/01 11:32:37;;;;;;;22.45;13.40;;;;;;;;;;6189472;23;20005;-79
2023/03/01 11:35:08;;;;;;;16.63;11.20;;;;;;;;;;6188779;23;20021;-79
2023/03/01 11:37:34;;;;;;;15.90;12.60;;;;;;;;;;6188876;23;20028;-78
2023/03/01 11:40:24;;;;;;;18.45;12.43;;;;;;;;;;6189983;23;20001;-78
2023/03/01 11:42:53;;;;;;;16.52;12.15;;;;;;;;;;6133195;23;20016;-78
2023/03/01 11:45:22;;;;;;;17.10;11.73;;;;;;;;;;6188436;23;20005;-78
2023/03/01 11:48:06;;;;;;;17.50;12.00;;;;;;;;;;6190525;23;19997;-79
2023/03/01 11:50:48;;;;;;;15.88;11.05;;;;;;;;;;6187783;23;20011;-78
2023/03/01 11:53:14;;;;;;;17.25;12.05;;;;;;;;;;6185642;23;20076;-77
2023/03/01 11:55:52;;;;;;;17.77;12.20;;;;;;;;;;6185399;23;20370;-78
2023/03/01 11:58:28;;;;;;;16.33;12.30;;;;;;;;;;6185587;23;20699;-78
2023/03/01 12:01:01;;;;;;;18.92;12.35;;;;;;;;;;6185493;23;20001;-78
2023/03/01 12:04:03;;;;;;;17.65;12.07;;;;;;;;;;6185973;23;20327;-77
2023/03/01 12:06:35;;;;;;;17.98;11.85;;;;;;;;;;6065419;23;20051;-78
2023/03/01 12:09:04;;;;;;;17.17;12.15;;;;;;;;;;6168221;23;20403;-77
2023/03/01 12:11:50;;;;;;;17.17;11.30;;;;;;;;;;6188051;23;20439;-77
2023/03/01 12:14:34;;;;;;;17.90;12.68;;;;;;;;;;6187752;23;20053;-78
2023/03/01 12:17:25;;;;;;;13.48;8.77;;;;;;;;;;6188426;23;19997;-78
2023/03/01 12:19:51;;;;;;;18.73;10.82;;;;;;;;;;6189961;23;20435;-77
2023/03/01 12:22:26;;;;;;;18.25;11.15;;;;;;;;;;6186834;23;20055;-77
2023/03/01 12:24:52;;;;;;;15.32;10.40;;;;;;;;;;6188431;23;20032;-79
2023/03/01 12:27:47;;;;;;;18.17;11.95;;;;;;;;;;6189075;23;20008;-79
2023/03/01 12:30:16;;;;;;;15.02;9.88;;;;;;;;;;6163471;23;20024;-77
2023/03/01 12:33:01;;;;;;;14.43;11.07;;;;;;;;;;6188720;23;20080;-80
2023/03/01 12:35:45;;;;;;;17.70;11.27;;;;;;;;;;6187655;23;20016;-79
2023/03/01 12:38:22;;;;;;;14.70;10.40;;;;;;;;;;6187618;23;20328;-79
2023/03/01 12:40:51;;;;;;;14.77;10.63;;;;;;;;;;6188845;23;20001;-80
2023/03/01 12:43:35;;;;;;;14.85;10.52;;;;;;;;;;6188035;23;20073;-80
2023/03/01 12:46:08;;;;;;;16.40;11.43;;;;;;;;;;6188006;23;20127;-80
2023/03/01 12:48:44;;;;;;;16.92;12.02;;;;;;;;;;6188432;23;20080;-80
2023/03/01 12:51:12;;;;;;;16.60;11.27;;;;;;;;;;6188094;23;19997;-80
2023/03/01 12:53:41;;;;;;;15.10;10.98;;;;;;;;;;6188055;23;19997;-80
2023/03/01 12:56:09;;;;;;;10.05;7.95;;;;;;;;;;6187944;23;20001;-80
2023/03/01 12:58:40;;;;;;;15.55;11.07;;;;;;;;;;6190388;23;20297;-80
2023/03/01 13:01:43;;;;;;;15.30;10.98;;;;;;;;;;6189307;23;19997;-80
2023/03/01 13:04:12;;;;;;;17.27;11.52;;;;;;;;;;6188755;23;20050;-80
2023/03/01 13:06:44;;;;;;;16.55;11.60;;;;;;;;;;6188395;23;20448;-80
2023/03/01 13:09:13;;;;;;;18.23;11.63;;;;;;;;;;6187741;23;20009;-80
2023/03/01 13:11:42;;;;;;;18.90;12.00;;;;;;;;;;6187916;23;20087;-80
2023/03/01 13:14:20;;;;;;;17.25;11.07;;;;;;;;;;6188290;23;20001;-80
2023/03/01 13:16:48;;;;;;;18.00;11.80;;;;;;;;;;6188320;23;20068;-80
2023/03/01 13:19:22;;;;;;;15.57;11.75;;;;;;;;;;6187891;23;20084;-80
2023/03/01 13:21:49;;;;;;;17.20;10.63;;;;;;;;;;6187662;23;20005;-80
2023/03/01 13:24:28;;;;;;;15.70;10.95;;;;;;;;;;6189029;23;20443;-79
2023/03/01 13:27:06;;;;;;;18.15;12.45;;;;;;;;;;6188650;23;20024;-79
2023/03/01 13:29:48;;;;;;;17.52;11.30;;;;;;;;;;6189275;23;20001;-79
2023/03/01 13:32:24;;;;;;;18.75;12.20;;;;;;;;;;6187993;23;20408;-78
2023/03/01 13:34:54;;;;;;;17.63;12.23;;;;;;;;;;6188917;23;20016;-78
2023/03/01 13:37:20;;;;;;;;;;;;;;;;;;6163875;23;20045;-79
2023/03/01 13:39:47;;;;;;;18.45;11.32;;;;;;;;;;6190988;23;19901;-79
2023/03/01 13:42:31;;;;;;;15.73;10.57;;;;;;;;;;6190342;23;20502;-79
2023/03/01 13:44:58;;;;;;;15.75;10.15;;;;;;;;;;6190469;23;20040;-79
2023/03/01 13:47:24;;;;;;;18.02;11.65;;;;;;;;;;6191226;23;20511;-79
2023/03/01 13:49:50;;;;;;;16.38;11.05;;;;;;;;;;6191404;23;19997;-79
2023/03/01 13:52:22;;;;;;;15.77;10.45;;;;;;;;;;6192578;23;20001;-79
2023/03/01 13:54:48;;;;;;;15.35;9.73;;;;;;;;;;6191521;23;20416;-79
2023/03/01 13:57:21;;;;;;;14.38;9.40;;;;;;;;;;6165044;23;19997;-79
2023/03/01 13:59:47;;;;;;;16.48;9.43;;;;;;;;;;6190980;23;20001;-79
2023/03/01 14:02:14;;;;;;;13.70;9.05;;;;;;;;;;6188447;23;20001;-78
2023/03/01 14:04:40;;;;;;;14.70;10.88;;;;;;;;;;6188946;23;20032;-79
2023/03/01 14:07:10;;;;;;;18.17;10.73;;;;;;;;;;6191397;23;20009;-79
2023/03/01 14:09:39;;;;;;;16.15;10.52;;;;;;;;;;6191291;23;20007;-79
2023/03/01 14:12:13;;;;;;;16.08;10.55;;;;;;;;;;6191117;23;20008;-79
2023/03/01 14:14:58;;;;;;;16.20;10.75;;;;;;;;;;6190828;23;20040;-78
2023/03/01 14:17:42;;;;;;;17.20;11.25;;;;;;;;;;6191265;23;20066;-79
2023/03/01 14:20:29;;;;;;;15.82;10.70;;;;;;;;;;6190842;23;20001;-78
2023/03/01 14:23:00;;;;;;;14.63;9.80;;;;;;;;;;6187040;23;20007;-78
2023/03/01 14:25:29;;;;;;;15.20;9.38;;;;;;;;;;6190577;23;20111;-78
2023/03/01 14:28:14;;;;;;;15.32;10.77;;;;;;;;;;6190646;23;20021;-78
2023/03/01 14:30:44;;;;;;;15.85;9.00;;;;;;;;;;6190216;23;20416;-78
2023/03/01 14:33:37;;;;;;;12.13;8.10;;;;;;;;;;6190485;23;20376;-78
2023/03/01 14:36:04;;;;;;;15.00;9.93;;;;;;;;;;6185304;23;20016;-78
2023/03/01 14:38:30;;;;;;;16.45;10.10;;;;;;;;;;6190842;23;19994;-78
2023/03/01 14:40:58;;;;;;;15.93;10.00;;;;;;;;;;6190322;23;20004;-79
2023/03/01 14:43:26;;;;;;;16.23;10.88;;;;;;;;;;6190966;23;19997;-78
2023/03/01 14:45:52;;;;;;;18.98;11.13;;;;;;;;;;6190748;23;20063;-78